sensor_id;sensor_type;location;lat;lon;timestamp;pressure;altitude;pressure_sealevel;temperature;humidity
15487;BME280;7845;53.698;10.078;2023-01-27T00:00:51;101919.47;;;5.37;100.00
15487;BME280;7845;53.698;10.078;2023-01-27T00:03:17;101919.66;;;5.43;100.00
15487;BME280;7845;53.698;10.078;2023-01-27T00:05:45;101922.06;;;5.37;100.00
15487;BME280;7845;53.698;10.078;2023-01-27T00:08:11;101919.31;;;5.33;100.00
15487;BME280;7845;53.698;10.078;2023-01-27T00:10:37;101926.25;;;5.34;100.00
15487;BME280;7845;53.698;10.078;2023-01-27T00:13:02;101923.00;;;5.41;100.00
15487;BME280;7845;53.698;10.078;2023-01-27T00:15:47;101924.78;;;5.42;100.00
15487;BME280;7845;53.698;10.078;2023-01-27T00:18:12;101924.38;;;5.56;100.00
15487;BME280;7845;53.698;10.078;2023-01-27T00:20:38;101919.47;;;5.37;100.00
15487;BME280;7845;53.698;10.078;2023-01-27T00:23:23;101931.94;;;5.49;100.00
15487;BME280;7845;53.698;10.078;2023-01-27T00:26:16;101937.50;;;5.34;100.00
15487;BME280;7845;53.698;10.078;2023-01-27T00:28:43;101939.53;;;5.44;100.00
15487;BME280;7845;53.698;10.078;2023-01-27T00:31:11;101935.31;;;5.46;100.00
15487;BME280;7845;53.698;10.078;2023-01-27T00:33:55;101935.34;;;5.48;100.00
15487;BME280;7845;53.698;10.078;2023-01-27T00:36:27;101940.47;;;5.46;100.00
15487;BME280;7845;53.698;10.078;2023-01-27T00:38:57;101937.19;;;5.52;100.00
15487;BME280;7845;53.698;10.078;2023-01-27T00:41:23;101938.84;;;5.50;100.00
15487;BME280;7845;53.698;10.078;2023-01-27T00:43:53;101938.25;;;5.58;100.00
15487;BME280;7845;53.698;10.078;2023-01-27T00:46:23;101942.56;;;5.58;100.00
15487;BME280;7845;53.698;10.078;2023-01-27T00:48:49;101942.59;;;5.59;100.00
15487;BME280;7845;53.698;10.078;2023-01-27T00:51:19;101937.41;;;5.59;100.00
15487;BME280;7845;53.698;10.078;2023-01-27T00:53:53;101951.78;;;5.50;100.00
15487;BME280;7845;53.698;10.078;2023-01-27T00:56:19;101953.63;;;5.52;100.00
15487;BME280;7845;53.698;10.078;2023-01-27T00:58:44;101947.66;;;5.55;100.00
15487;BME280;7845;53.698;10.078;2023-01-27T01:01:15;101952.84;;;5.55;100.00
15487;BME280;7845;53.698;10.078;2023-01-27T01:03:41;101952.72;;;5.52;100.00
15487;BME280;7845;53.698;10.078;2023-01-27T01:06:14;101944.28;;;5.57;100.00
15487;BME280;7845;53.698;10.078;2023-01-27T01:08:43;101945.84;;;5.52;100.00
15487;BME280;7845;53.698;10.078;2023-01-27T01:11:12;101945.06;;;5.55;100.00
15487;BME280;7845;53.698;10.078;2023-01-27T01:13:38;101953.44;;;5.46;100.00
15487;BME280;7845;53.698;10.078;2023-01-27T01:16:08;101942.56;;;5.58;100.00
15487;BME280;7845;53.698;10.078;2023-01-27T01:18:44;101953.44;;;5.46;100.00
15487;BME280;7845;53.698;10.078;2023-01-27T01:21:10;101959.84;;;5.59;100.00
15487;BME280;7845;53.698;10.078;2023-01-27T01:23:40;101957.25;;;5.59;100.00
15487;BME280;7845;53.698;10.078;2023-01-27T01:26:09;101956.56;;;5.65;100.00
15487;BME280;7845;53.698;10.078;2023-01-27T01:28:35;101973.53;;;5.55;100.00
15487;BME280;7845;53.698;10.078;2023-01-27T01:31:08;101969.38;;;5.60;100.00
15487;BME280;7845;53.698;10.078;2023-01-27T01:33:35;101969.50;;;5.65;100.00
15487;BME280;7845;53.698;10.078;2023-01-27T01:36:08;101974.84;;;5.69;100.00
15487;BME280;7845;53.698;10.078;2023-01-27T01:38:34;101973.78;;;5.63;100.00
15487;BME280;7845;53.698;10.078;2023-01-27T01:41:00;101976.47;;;5.66;100.00
15487;BME280;7845;53.698;10.078;2023-01-27T01:43:26;101979.63;;;5.57;100.00
15487;BME280;7845;53.698;10.078;2023-01-27T01:45:53;101978.91;;;5.61;100.00
15487;BME280;7845;53.698;10.078;2023-01-27T01:48:28;101985.63;;;5.56;100.00
15487;BME280;7845;53.698;10.078;2023-01-27T01:51:12;101979.53;;;5.54;100.00
15487;BME280;7845;53.698;10.078;2023-01-27T01:56:29;101988.22;;;5.56;100.00
15487;BME280;7845;53.698;10.078;2023-01-27T01:58:57;101977.88;;;5.56;100.00
15487;BME280;7845;53.698;10.078;2023-01-27T02:01:26;101988.03;;;5.50;100.00
15487;BME280;7845;53.698;10.078;2023-01-27T02:03:56;101988.97;;;5.52;100.00
15487;BME280;7845;53.698;10.078;2023-01-27T02:06:23;101995.38;;;5.36;100.00
15487;BME280;7845;53.698;10.078;2023-01-27T02:08:52;101987.00;;;5.45;100.00
15487;BME280;7845;53.698;10.078;2023-01-27T02:11:18;101989.59;;;5.45;100.00
15487;BME280;7845;53.698;10.078;2023-01-27T02:13:44;101986.88;;;5.40;100.00
15487;BME280;7845;53.698;10.078;2023-01-27T02:16:11;101986.13;;;5.44;100.00
15487;BME280;7845;53.698;10.078;2023-01-27T02:18:39;101994.38;;;5.33;100.00
15487;BME280;7845;53.698;10.078;2023-01-27T02:21:05;101995.50;;;5.41;100.00
15487;BME280;7845;53.698;10.078;2023-01-27T02:23:58;102008.81;;;5.51;100.00
15487;BME280;7845;53.698;10.078;2023-01-27T02:26:29;102002.34;;;5.39;100.00
15487;BME280;7845;53.698;10.078;2023-01-27T02:29:10;102014.41;;;5.38;100.00
15487;BME280;7845;53.698;10.078;2023-01-27T02:31:36;102007.69;;;5.43;100.00
15487;BME280;7845;53.698;10.078;2023-01-27T02:34:08;102009.59;;;5.49;100.00
15487;BME280;7845;53.698;10.078;2023-01-27T02:36:50;102015.00;;;5.56;100.00
15487;BME280;7845;53.698;10.078;2023-01-27T02:39:18;102012.91;;;5.45;100.00
15487;BME280;7845;53.698;10.078;2023-01-27T02:41:51;102017.16;;;5.43;100.00
15487;BME280;7845;53.698;10.078;2023-01-27T02:44:19;102014.00;;;5.51;100.00
15487;BME280;7845;53.698;10.078;2023-01-27T02:46:46;102023.34;;;5.46;100.00
15487;BME280;7845;53.698;10.078;2023-01-27T02:49:13;102017.94;;;5.40;100.00
15487;BME280;7845;53.698;10.078;2023-01-27T02:51:38;102016.41;;;5.47;100.00
15487;BME280;7845;53.698;10.078;2023-01-27T02:54:04;102013.25;;;5.55;100.00
15487;BME280;7845;53.698;10.078;2023-01-27T02:56:29;102019.38;;;5.57;100.00
15487;BME280;7845;53.698;10.078;2023-01-27T02:58:55;102022.25;;;5.40;100.00
15487;BME280;7845;53.698;10.078;2023-01-27T03:01:22;102033.41;;;5.39;100.00
15487;BME280;7845;53.698;10.078;2023-01-27T03:03:48;102039.06;;;5.27;100.00
15487;BME280;7845;53.698;10.078;2023-01-27T03:06:19;102029.69;;;5.31;100.00
15487;BME280;7845;53.698;10.078;2023-01-27T03:08:48;102026.25;;;5.32;100.00
15487;BME280;7845;53.698;10.078;2023-01-27T03:11:13;102024.97;;;5.44;100.00
15487;BME280;7845;53.698;10.078;2023-01-27T03:13:59;102027.72;;;5.24;100.00
15487;BME280;7845;53.698;10.078;2023-01-27T03:16:24;102029.63;;;5.29;100.00
15487;BME280;7845;53.698;10.078;2023-01-27T03:19:10;102028.19;;;5.37;100.00
15487;BME280;7845;53.698;10.078;2023-01-27T03:21:35;102030.63;;;5.33;100.00
15487;BME280;7845;53.698;10.078;2023-01-27T03:24:02;102031.91;;;5.45;100.00
15487;BME280;7845;53.698;10.078;2023-01-27T03:26:27;102046.56;;;5.45;100.00
15487;BME280;7845;53.698;10.078;2023-01-27T03:28:52;102056.81;;;5.42;100.00
15487;BME280;7845;53.698;10.078;2023-01-27T03:31:37;102055.16;;;5.44;100.00
15487;BME280;7845;53.698;10.078;2023-01-27T03:34:03;102061.78;;;5.36;100.00
15487;BME280;7845;53.698;10.078;2023-01-27T03:36:29;102075.78;;;5.17;100.00
15487;BME280;7845;53.698;10.078;2023-01-27T03:39:13;102069.50;;;5.34;100.00
15487;BME280;7845;53.698;10.078;2023-01-27T03:41:57;102074.31;;;5.24;100.00
15487;BME280;7845;53.698;10.078;2023-01-27T03:44:40;102070.94;;;5.26;100.00
15487;BME280;7845;53.698;10.078;2023-01-27T03:47:25;102072.09;;;5.34;100.00
15487;BME280;7845;53.698;10.078;2023-01-27T03:49:50;102083.44;;;5.14;100.00
15487;BME280;7845;53.698;10.078;2023-01-27T03:52:15;102086.22;;;5.19;100.00
15487;BME280;7845;53.698;10.078;2023-01-27T03:54:41;102087.97;;;5.20;100.00
15487;BME280;7845;53.698;10.078;2023-01-27T03:57:06;102085.28;;;5.17;100.00
15487;BME280;7845;53.698;10.078;2023-01-27T03:59:31;102079.00;;;5.10;100.00
15487;BME280;7845;53.698;10.078;2023-01-27T04:01:57;102082.75;;;4.94;100.00
15487;BME280;7845;53.698;10.078;2023-01-27T04:04:41;102086.13;;;4.92;100.00
15487;BME280;7845;53.698;10.078;2023-01-27T04:07:27;102075.03;;;4.96;100.00
15487;BME280;7845;53.698;10.078;2023-01-27T04:09:53;102084.69;;;5.00;100.00
15487;BME280;7845;53.698;10.078;2023-01-27T04:12:20;102083.34;;;5.11;100.00
15487;BME280;7845;53.698;10.078;2023-01-27T04:14:45;102083.88;;;5.26;100.00
15487;BME280;7845;53.698;10.078;2023-01-27T04:17:16;102090.81;;;5.27;100.00
15487;BME280;7845;53.698;10.078;2023-01-27T04:19:42;102098.28;;;5.18;100.00
15487;BME280;7845;53.698;10.078;2023-01-27T04:22:09;102089.28;;;5.09;100.00
15487;BME280;7845;53.698;10.078;2023-01-27T04:24:34;102096.50;;;4.93;100.00
15487;BME280;7845;53.698;10.078;2023-01-27T04:27:09;102089.47;;;5.13;100.00
15487;BME280;7845;53.698;10.078;2023-01-27T04:29:36;102088.97;;;4.99;100.00
15487;BME280;7845;53.698;10.078;2023-01-27T04:32:04;102096.16;;;5.08;100.00
15487;BME280;7845;53.698;10.078;2023-01-27T04:34:31;102101.34;;;5.08;100.00
15487;BME280;7845;53.698;10.078;2023-01-27T04:36:57;102103.13;;;5.09;100.00
15487;BME280;7845;53.698;10.078;2023-01-27T04:39:24;102106.53;;;5.08;100.00
15487;BME280;7845;53.698;10.078;2023-01-27T04:41:49;102108.16;;;5.05;100.00
15487;BME280;7845;53.698;10.078;2023-01-27T04:44:16;102106.31;;;5.02;100.00
15487;BME280;7845;53.698;10.078;2023-01-27T04:46:41;102111.00;;;4.88;100.00
15487;BME280;7845;53.698;10.078;2023-01-27T04:49:06;102119.53;;;5.10;100.00
15487;BME280;7845;53.698;10.078;2023-01-27T04:51:33;102119.44;;;4.84;100.00
15487;BME280;7845;53.698;10.078;2023-01-27T04:53:59;102119.75;;;4.92;100.00
15487;BME280;7845;53.698;10.078;2023-01-27T04:56:35;102130.47;;;5.02;100.00
15487;BME280;7845;53.698;10.078;2023-01-27T04:59:02;102133.06;;;5.02;100.00
15487;BME280;7845;53.698;10.078;2023-01-27T05:01:28;102133.72;;;4.97;100.00
15487;BME280;7845;53.698;10.078;2023-01-27T05:03:56;102130.13;;;4.93;100.00
15487;BME280;7845;53.698;10.078;2023-01-27T05:06:22;102143.97;;;4.94;100.00
15487;BME280;7845;53.698;10.078;2023-01-27T05:08:48;102143.81;;;4.89;100.00
15487;BME280;7845;53.698;10.078;2023-01-27T05:11:15;102135.84;;;4.85;100.00
15487;BME280;7845;53.698;10.078;2023-01-27T05:13:42;102140.97;;;4.83;100.00
15487;BME280;7845;53.698;10.078;2023-01-27T05:16:13;102144.03;;;4.73;100.00
15487;BME280;7845;53.698;10.078;2023-01-27T05:18:40;102154.31;;;4.94;100.00
15487;BME280;7845;53.698;10.078;2023-01-27T05:21:07;102137.22;;;4.99;100.00
15487;BME280;7845;53.698;10.078;2023-01-27T05:23:33;102140.66;;;4.98;100.00
15487;BME280;7845;53.698;10.078;2023-01-27T05:26:04;102143.69;;;4.86;100.00
15487;BME280;7845;53.698;10.078;2023-01-27T05:28:31;102147.13;;;4.87;100.00
15487;BME280;7845;53.698;10.078;2023-01-27T05:31:17;102149.19;;;4.51;100.00
15487;BME280;7845;53.698;10.078;2023-01-27T05:33:44;102155.09;;;4.47;100.00
15487;BME280;7845;53.698;10.078;2023-01-27T05:36:11;102152.38;;;4.44;100.00
15487;BME280;7845;53.698;10.078;2023-01-27T05:38:37;102140.69;;;4.76;100.00
15487;BME280;7845;53.698;10.078;2023-01-27T05:41:04;102139.97;;;4.80;100.00
15487;BME280;7845;53.698;10.078;2023-01-27T05:43:34;102137.63;;;4.86;100.00
15487;BME280;7845;53.698;10.078;2023-01-27T05:46:10;102134.81;;;4.80;100.00
15487;BME280;7845;53.698;10.078;2023-01-27T05:48:38;102158.03;;;5.02;100.00
15487;BME280;7845;53.698;10.078;2023-01-27T05:51:04;102159.94;;;5.06;100.00
15487;BME280;7845;53.698;10.078;2023-01-27T05:53:30;102165.28;;;5.11;100.00
15487;BME280;7845;53.698;10.078;2023-01-27T05:55:55;102179.59;;;5.01;100.00
15487;BME280;7845;53.698;10.078;2023-01-27T05:58:21;102176.13;;;4.56;100.00
15487;BME280;7845;53.698;10.078;2023-01-27T06:00:47;102187.25;;;4.54;100.00
15487;BME280;7845;53.698;10.078;2023-01-27T06:03:12;102181.22;;;4.55;100.00
15487;BME280;7845;53.698;10.078;2023-01-27T06:05:53;102178.97;;;4.62;100.00
15487;BME280;7845;53.698;10.078;2023-01-27T06:08:21;102179.41;;;4.52;100.00
15487;BME280;7845;53.698;10.078;2023-01-27T06:10:48;102190.19;;;4.63;100.00
15487;BME280;7845;53.698;10.078;2023-01-27T06:13:16;102194.63;;;4.67;100.00
15487;BME280;7845;53.698;10.078;2023-01-27T06:15:46;102194.63;;;4.67;100.00
15487;BME280;7845;53.698;10.078;2023-01-27T06:18:13;102202.00;;;4.56;100.00
15487;BME280;7845;53.698;10.078;2023-01-27T06:20:39;102210.63;;;4.57;100.00
15487;BME280;7845;53.698;10.078;2023-01-27T06:23:09;102222.75;;;4.37;100.00
15487;BME280;7845;53.698;10.078;2023-01-27T06:25:40;102209.66;;;4.55;100.00
15487;BME280;7845;53.698;10.078;2023-01-27T06:28:06;102215.31;;;4.44;100.00
15487;BME280;7845;53.698;10.078;2023-01-27T06:30:37;102219.59;;;4.44;100.00
15487;BME280;7845;53.698;10.078;2023-01-27T06:33:04;102211.47;;;4.57;100.00
15487;BME280;7845;53.698;10.078;2023-01-27T06:35:32;102210.09;;;4.65;100.00
15487;BME280;7845;53.698;10.078;2023-01-27T06:38:02;102223.88;;;4.43;100.00
15487;BME280;7845;53.698;10.078;2023-01-27T06:40:40;102216.06;;;4.42;100.00
15487;BME280;7845;53.698;10.078;2023-01-27T06:43:13;102215.03;;;4.59;100.00
15487;BME280;7845;53.698;10.078;2023-01-27T06:45:39;102216.84;;;4.62;100.00
15487;BME280;7845;53.698;10.078;2023-01-27T06:48:06;102219.97;;;4.53;100.00
15487;BME280;7845;53.698;10.078;2023-01-27T06:50:32;102219.38;;;4.60;100.00
15487;BME280;7845;53.698;10.078;2023-01-27T06:52:59;102226.03;;;4.54;100.00
15487;BME280;7845;53.698;10.078;2023-01-27T06:55:26;102231.63;;;4.43;100.00
15487;BME280;7845;53.698;10.078;2023-01-27T06:57:58;102229.56;;;4.35;100.00
15487;BME280;7845;53.698;10.078;2023-01-27T07:00:26;102243.25;;;4.32;100.00
15487;BME280;7845;53.698;10.078;2023-01-27T07:02:55;102240.66;;;4.32;100.00
15487;BME280;7845;53.698;10.078;2023-01-27T07:05:20;102245.50;;;4.45;100.00
15487;BME280;7845;53.698;10.078;2023-01-27T07:07:46;102245.44;;;4.44;100.00
15487;BME280;7845;53.698;10.078;2023-01-27T07:10:11;102253.38;;;4.48;100.00
15487;BME280;7845;53.698;10.078;2023-01-27T07:12:36;102262.53;;;4.40;100.00
15487;BME280;7845;53.698;10.078;2023-01-27T07:15:06;102275.69;;;4.46;100.00
15487;BME280;7845;53.698;10.078;2023-01-27T07:17:32;102272.69;;;4.57;100.00
15487;BME280;7845;53.698;10.078;2023-01-27T07:19:58;102278.22;;;4.45;100.00
15487;BME280;7845;53.698;10.078;2023-01-27T07:22:24;102285.53;;;4.34;100.00
15487;BME280;7845;53.698;10.078;2023-01-27T07:24:51;102292.41;;;4.34;100.00
15487;BME280;7845;53.698;10.078;2023-01-27T07:27:16;102292.34;;;4.32;100.00
15487;BME280;7845;53.698;10.078;2023-01-27T07:29:43;102293.72;;;4.24;100.00
15487;BME280;7845;53.698;10.078;2023-01-27T07:32:08;102288.75;;;4.29;100.00
15487;BME280;7845;53.698;10.078;2023-01-27T07:34:34;102298.81;;;4.23;100.00
15487;BME280;7845;53.698;10.078;2023-01-27T07:37:00;102288.88;;;4.32;100.00
15487;BME280;7845;53.698;10.078;2023-01-27T07:39:27;102296.50;;;4.29;100.00
15487;BME280;7845;53.698;10.078;2023-01-27T07:41:52;102292.78;;;4.43;100.00
15487;BME280;7845;53.698;10.078;2023-01-27T07:44:18;102302.06;;;4.38;100.00
15487;BME280;7845;53.698;10.078;2023-01-27T07:46:43;102295.75;;;4.52;100.00
15487;BME280;7845;53.698;10.078;2023-01-27T07:49:09;102287.69;;;4.65;100.00
15487;BME280;7845;53.698;10.078;2023-01-27T07:51:36;102291.19;;;4.67;100.00
15487;BME280;7845;53.698;10.078;2023-01-27T07:54:02;102297.00;;;4.62;100.00
15487;BME280;7845;53.698;10.078;2023-01-27T07:56:29;102294.44;;;4.62;100.00
15487;BME280;7845;53.698;10.078;2023-01-27T07:58:54;102295.06;;;4.35;100.00
15487;BME280;7845;53.698;10.078;2023-01-27T08:01:21;102298.34;;;4.52;100.00
15487;BME280;7845;53.698;10.078;2023-01-27T08:03:46;102303.72;;;4.57;100.00
15487;BME280;7845;53.698;10.078;2023-01-27T08:06:12;102307.78;;;4.52;100.00
15487;BME280;7845;53.698;10.078;2023-01-27T08:08:37;102310.69;;;4.38;100.00
15487;BME280;7845;53.698;10.078;2023-01-27T08:11:04;102309.13;;;4.63;100.00
15487;BME280;7845;53.698;10.078;2023-01-27T08:13:32;102318.75;;;4.67;100.00
15487;BME280;7845;53.698;10.078;2023-01-27T08:15:58;102314.84;;;4.56;100.00
15487;BME280;7845;53.698;10.078;2023-01-27T08:18:27;102326.91;;;4.55;100.00
15487;BME280;7845;53.698;10.078;2023-01-27T08:20:54;102325.19;;;4.76;100.00
15487;BME280;7845;53.698;10.078;2023-01-27T08:23:24;102335.59;;;4.57;100.00
15487;BME280;7845;53.698;10.078;2023-01-27T08:25:56;102331.63;;;4.65;100.00
15487;BME280;7845;53.698;10.078;2023-01-27T08:28:22;102344.31;;;4.59;100.00
15487;BME280;7845;53.698;10.078;2023-01-27T08:30:48;102344.50;;;4.64;100.00
15487;BME280;7845;53.698;10.078;2023-01-27T08:33:22;102347.44;;;4.73;100.00
15487;BME280;7845;53.698;10.078;2023-01-27T08:35:49;102359.97;;;4.62;100.00
15487;BME280;7845;53.698;10.078;2023-01-27T08:38:17;102355.03;;;4.68;100.00
15487;BME280;7845;53.698;10.078;2023-01-27T08:40:44;102352.50;;;4.70;100.00
15487;BME280;7845;53.698;10.078;2023-01-27T08:43:10;102356.78;;;4.69;100.00
15487;BME280;7845;53.698;10.078;2023-01-27T08:45:37;102354.03;;;4.65;100.00
15487;BME280;7845;53.698;10.078;2023-01-27T08:48:03;102361.03;;;4.67;100.00
15487;BME280;7845;53.698;10.078;2023-01-27T08:50:31;102356.78;;;4.69;100.00
15487;BME280;7845;53.698;10.078;2023-01-27T08:52:57;102362.66;;;4.65;100.00
15487;BME280;7845;53.698;10.078;2023-01-27T08:55:28;102370.84;;;4.55;100.00
15487;BME280;7845;53.698;10.078;2023-01-27T08:57:53;102364.91;;;4.58;100.00
15487;BME280;7845;53.698;10.078;2023-01-27T09:00:20;102373.31;;;4.52;100.00
15487;BME280;7845;53.698;10.078;2023-01-27T09:02:45;102363.41;;;4.42;100.00
15487;BME280;7845;53.698;10.078;2023-01-27T09:05:12;102368.13;;;4.52;100.00
15487;BME280;7845;53.698;10.078;2023-01-27T09:07:38;102368.75;;;4.46;100.00
15487;BME280;7845;53.698;10.078;2023-01-27T09:10:04;102377.34;;;4.66;100.00
15487;BME280;7845;53.698;10.078;2023-01-27T09:12:30;102382.38;;;4.63;100.00
15487;BME280;7845;53.698;10.078;2023-01-27T09:14:56;102378.75;;;4.79;100.00
15487;BME280;7845;53.698;10.078;2023-01-27T09:17:23;102391.22;;;5.10;100.00
15487;BME280;7845;53.698;10.078;2023-01-27T09:19:49;102406.38;;;4.40;100.00
15487;BME280;7845;53.698;10.078;2023-01-27T09:22:15;102406.59;;;4.44;100.00
15487;BME280;7845;53.698;10.078;2023-01-27T09:24:41;102411.94;;;4.68;100.00
15487;BME280;7845;53.698;10.078;2023-01-27T09:27:07;102415.47;;;4.70;100.00
15487;BME280;7845;53.698;10.078;2023-01-27T09:29:34;102409.59;;;4.54;100.00
15487;BME280;7845;53.698;10.078;2023-01-27T09:32:01;102411.81;;;4.65;100.00
15487;BME280;7845;53.698;10.078;2023-01-27T09:34:27;102418.25;;;4.75;100.00
15487;BME280;7845;53.698;10.078;2023-01-27T09:36:57;102420.50;;;4.48;100.00
15487;BME280;7845;53.698;10.078;2023-01-27T09:39:24;102410.97;;;4.66;100.00
15487;BME280;7845;53.698;10.078;2023-01-27T09:50:18;102422.38;;;4.51;100.00
15487;BME280;7845;53.698;10.078;2023-01-27T09:53:17;102421.75;;;4.56;100.00
15487;BME280;7845;53.698;10.078;2023-01-27T09:55:51;102408.97;;;4.40;100.00
15487;BME280;7845;53.698;10.078;2023-01-27T09:58:39;102421.56;;;4.32;100.00
15487;BME280;7845;53.698;10.078;2023-01-27T10:01:38;102428.75;;;4.39;100.00
15487;BME280;7845;53.698;10.078;2023-01-27T10:04:38;102418.06;;;4.51;100.00
15487;BME280;7845;53.698;10.078;2023-01-27T10:19:00;102404.22;;;4.70;100.00
15487;BME280;7845;53.698;10.078;2023-01-27T10:24:26;102418.00;;;4.50;100.00
15487;BME280;7845;53.698;10.078;2023-01-27T10:27:06;102412.81;;;4.69;100.00
15487;BME280;7845;53.698;10.078;2023-01-27T10:29:50;102417.38;;;4.74;100.00
15487;BME280;7845;53.698;10.078;2023-01-27T10:32:26;102428.13;;;4.64;100.00
15487;BME280;7845;53.698;10.078;2023-01-27T10:35:16;102438.09;;;4.36;100.00
15487;BME280;7845;53.698;10.078;2023-01-27T10:40:23;102444.22;;;4.38;100.00
15487;BME280;7845;53.698;10.078;2023-01-27T10:45:41;102458.50;;;4.30;100.00
15487;BME280;7845;53.698;10.078;2023-01-27T10:50:56;102451.16;;;4.39;100.00
15487;BME280;7845;53.698;10.078;2023-01-27T10:53:42;102445.38;;;4.44;100.00
15487;BME280;7845;53.698;10.078;2023-01-27T10:56:31;102453.63;;;4.36;100.00
15487;BME280;7845;53.698;10.078;2023-01-27T10:59:07;102451.53;;;4.48;100.00
15487;BME280;7845;53.698;10.078;2023-01-27T11:01:43;102458.47;;;4.49;100.00
15487;BME280;7845;53.698;10.078;2023-01-27T11:04:29;102461.22;;;4.52;100.00
15487;BME280;7845;53.698;10.078;2023-01-27T11:06:58;102459.44;;;4.51;100.00
15487;BME280;7845;53.698;10.078;2023-01-27T11:09:30;102460.94;;;4.46;100.00
15487;BME280;7845;53.698;10.078;2023-01-27T11:12:02;102466.25;;;4.49;100.00
15487;BME280;7845;53.698;10.078;2023-01-27T11:14:31;102457.38;;;4.63;100.00
15487;BME280;7845;53.698;10.078;2023-01-27T11:19:44;102479.34;;;4.73;100.00
15487;BME280;7845;53.698;10.078;2023-01-27T11:22:43;102475.28;;;4.59;100.00
15487;BME280;7845;53.698;10.078;2023-01-27T11:25:23;102471.94;;;4.80;100.00
15487;BME280;7845;53.698;10.078;2023-01-27T11:28:21;102469.13;;;4.95;100.00
15487;BME280;7845;53.698;10.078;2023-01-27T11:31:25;102470.13;;;4.98;100.00
15487;BME280;7845;53.698;10.078;2023-01-27T11:36:24;102467.59;;;4.60;100.00
15487;BME280;7845;53.698;10.078;2023-01-27T11:38:52;102464.94;;;4.59;100.00
15487;BME280;7845;53.698;10.078;2023-01-27T11:41:17;102468.06;;;4.71;100.00
15487;BME280;7845;53.698;10.078;2023-01-27T11:43:44;102468.34;;;4.77;100.00
15487;BME280;7845;53.698;10.078;2023-01-27T11:46:16;102468.66;;;4.84;100.00
15487;BME280;7845;53.698;10.078;2023-01-27T11:48:48;102464.44;;;4.86;100.00
15487;BME280;7845;53.698;10.078;2023-01-27T11:51:18;102464.31;;;4.83;100.00
15487;BME280;7845;53.698;10.078;2023-01-27T11:53:49;102463.72;;;4.90;100.00
15487;BME280;7845;53.698;10.078;2023-01-27T11:56:18;102463.47;;;4.84;100.00
15487;BME280;7845;53.698;10.078;2023-01-27T11:59:02;102474.81;;;4.67;100.00
15487;BME280;7845;53.698;10.078;2023-01-27T12:01:42;102470.94;;;4.58;100.00
15487;BME280;7845;53.698;10.078;2023-01-27T12:04:49;102477.34;;;4.46;100.00
15487;BME280;7845;53.698;10.078;2023-01-27T12:09:51;102462.41;;;4.60;100.00
15487;BME280;7845;53.698;10.078;2023-01-27T12:12:26;102468.59;;;4.64;100.00
15487;BME280;7845;53.698;10.078;2023-01-27T12:14:54;102470.84;;;4.75;100.00
15487;BME280;7845;53.698;10.078;2023-01-27T12:17:39;102455.94;;;4.70;100.00
15487;BME280;7845;53.698;10.078;2023-01-27T12:20:32;102455.31;;;4.75;100.00
15487;BME280;7845;53.698;10.078;2023-01-27T12:23:23;102452.44;;;4.88;100.00
15487;BME280;7845;53.698;10.078;2023-01-27T12:25:57;102450.91;;;4.73;100.00
15487;BME280;7845;53.698;10.078;2023-01-27T12:28:28;102452.63;;;4.93;100.00
15487;BME280;7845;53.698;10.078;2023-01-27T12:31:03;102456.53;;;4.43;100.00
15487;BME280;7845;53.698;10.078;2023-01-27T12:33:31;102457.88;;;4.55;100.00
15487;BME280;7845;53.698;10.078;2023-01-27T12:35:59;102460.94;;;4.65;100.00
15487;BME280;7845;53.698;10.078;2023-01-27T12:38:28;102467.75;;;4.44;100.00
15487;BME280;7845;53.698;10.078;2023-01-27T12:41:04;102470.03;;;4.57;100.00
15487;BME280;7845;53.698;10.078;2023-01-27T12:43:48;102465.66;;;4.75;100.00
15487;BME280;7845;53.698;10.078;2023-01-27T12:46:23;102469.94;;;4.94;100.00
15487;BME280;7845;53.698;10.078;2023-01-27T12:48:52;102471.06;;;5.00;100.00
15487;BME280;7845;53.698;10.078;2023-01-27T12:51:22;102477.00;;;4.98;100.00
15487;BME280;7845;53.698;10.078;2023-01-27T12:53:49;102469.41;;;5.02;100.00
15487;BME280;7845;53.698;10.078;2023-01-27T12:56:18;102479.34;;;4.92;100.00
15487;BME280;7845;53.698;10.078;2023-01-27T13:01:28;102469.44;;;4.63;100.00
15487;BME280;7845;53.698;10.078;2023-01-27T13:04:12;102469.38;;;4.61;100.00
15487;BME280;7845;53.698;10.078;2023-01-27T13:06:48;102474.63;;;4.63;100.00
15487;BME280;7845;53.698;10.078;2023-01-27T13:09:23;102481.34;;;4.59;100.00
15487;BME280;7845;53.698;10.078;2023-01-27T13:11:51;102475.28;;;4.59;100.00
15487;BME280;7845;53.698;10.078;2023-01-27T13:14:17;102475.06;;;4.54;100.00
15487;BME280;7845;53.698;10.078;2023-01-27T13:16:54;102469.84;;;4.33;100.00
15487;BME280;7845;53.698;10.078;2023-01-27T13:19:24;102464.81;;;4.36;100.00
15487;BME280;7845;53.698;10.078;2023-01-27T13:21:56;102465.50;;;4.52;100.00
15487;BME280;7845;53.698;10.078;2023-01-27T13:24:36;102464.81;;;4.56;100.00
15487;BME280;7845;53.698;10.078;2023-01-27T13:27:08;102460.31;;;4.52;100.00
15487;BME280;7845;53.698;10.078;2023-01-27T13:29:38;102462.50;;;4.42;100.00
15487;BME280;7845;53.698;10.078;2023-01-27T13:32:15;102457.47;;;4.65;100.00
15487;BME280;7845;53.698;10.078;2023-01-27T13:35:00;102458.28;;;4.84;100.00
15487;BME280;7845;53.698;10.078;2023-01-27T13:37:40;102453.84;;;4.61;100.00
15487;BME280;7845;53.698;10.078;2023-01-27T13:40:19;102455.06;;;4.69;100.00
15487;BME280;7845;53.698;10.078;2023-01-27T13:45:35;102465.03;;;4.41;100.00
15487;BME280;7845;53.698;10.078;2023-01-27T13:48:22;102455.41;;;4.58;100.00
15487;BME280;7845;53.698;10.078;2023-01-27T13:51:07;102458.75;;;4.55;100.00
15487;BME280;7845;53.698;10.078;2023-01-27T13:53:33;102459.16;;;4.64;100.00
15487;BME280;7845;53.698;10.078;2023-01-27T14:12:31;102465.63;;;4.55;100.00